createdAt,value
2023-01-17T00:00:12.267Z,216.43
2023-01-17T00:02:41.052Z,192.40
2023-01-17T00:05:29.040Z,194.10
2023-01-17T00:08:15.977Z,192.07
2023-01-17T00:10:45.550Z,198.32
2023-01-17T00:13:14.448Z,186.05
2023-01-17T00:15:43.781Z,187.10
2023-01-17T00:18:12.497Z,187.98
2023-01-17T00:20:59.639Z,185.68
2023-01-17T00:23:46.769Z,207.18
2023-01-17T00:26:20.907Z,214.10
2023-01-17T00:28:50.244Z,234.43
2023-01-17T00:31:18.932Z,194.30
2023-01-17T00:33:47.613Z,200.18
2023-01-17T00:36:16.215Z,199.02
2023-01-17T00:38:44.935Z,209.60
2023-01-17T00:41:15.814Z,195.30
2023-01-17T00:44:03.232Z,215.60
2023-01-17T00:46:50.416Z,187.23
2023-01-17T00:49:38.161Z,197.50
2023-01-17T00:52:25.706Z,201.80
2023-01-17T00:55:13.315Z,214.40
2023-01-17T00:58:00.594Z,188.02
2023-01-17T01:00:49.713Z,182.57
2023-01-17T01:03:38.799Z,218.25
2023-01-17T01:06:29.460Z,207.23
2023-01-17T01:09:18.791Z,263.08
2023-01-17T01:12:06.739Z,241.25
2023-01-17T01:14:55.902Z,231.02
2023-01-17T01:17:43.547Z,256.00
2023-01-17T01:20:34.447Z,210.77
2023-01-17T01:23:26.338Z,231.85
2023-01-17T01:26:14.104Z,230.30
2023-01-17T01:29:02.736Z,246.80
2023-01-17T01:31:50.564Z,225.20
2023-01-17T01:34:20.613Z,234.10
2023-01-17T01:36:50.365Z,243.80
2023-01-17T01:39:19.997Z,215.18
2023-01-17T01:41:49.423Z,211.35
2023-01-17T01:44:44.709Z,248.45
2023-01-17T01:47:28.807Z,234.40
2023-01-17T01:50:01.892Z,246.15
2023-01-17T01:52:35.260Z,213.52
2023-01-17T01:55:12.228Z,236.52
2023-01-17T01:57:48.538Z,253.38
2023-01-17T02:00:26.201Z,255.18
2023-01-17T02:03:00.110Z,239.90
2023-01-17T02:05:31.127Z,267.05
2023-01-17T02:08:06.151Z,258.30
2023-01-17T02:10:41.038Z,275.77
2023-01-17T02:13:12.034Z,259.65
2023-01-17T02:16:05.759Z,262.98
2023-01-17T02:18:43.008Z,298.42
2023-01-17T02:21:19.038Z,305.55
2023-01-17T02:24:03.615Z,291.17
2023-01-17T02:27:01.713Z,308.90
2023-01-17T02:29:59.225Z,321.02
2023-01-17T02:32:46.893Z,352.25
2023-01-17T02:35:33.310Z,317.25
2023-01-17T02:38:40.441Z,504.98
2023-01-17T02:41:22.577Z,460.73
2023-01-17T02:43:54.552Z,511.67
2023-01-17T02:46:24.462Z,359.23
2023-01-17T02:48:55.024Z,326.50
2023-01-17T02:51:56.047Z,329.67
2023-01-17T02:54:25.989Z,293.92
2023-01-17T02:57:19.316Z,290.58
2023-01-17T03:00:00.914Z,290.70
2023-01-17T03:02:53.745Z,265.30
2023-01-17T03:05:38.663Z,233.23
2023-01-17T03:08:08.988Z,237.80
2023-01-17T03:10:38.955Z,260.80
2023-01-17T03:13:08.329Z,267.02
2023-01-17T03:15:41.151Z,246.65
2023-01-17T03:18:17.686Z,232.75
2023-01-17T03:20:47.743Z,228.70
2023-01-17T03:23:17.603Z,216.20
2023-01-17T03:25:47.060Z,214.65
2023-01-17T03:28:16.698Z,243.38
2023-01-17T03:30:45.839Z,232.60
2023-01-17T03:33:18.049Z,238.95
2023-01-17T03:35:47.682Z,255.90
2023-01-17T03:38:18.037Z,224.00
2023-01-17T03:40:47.354Z,245.32
2023-01-17T03:43:16.139Z,206.38
2023-01-17T03:45:45.273Z,242.82
2023-01-17T03:48:14.328Z,231.77
2023-01-17T03:50:43.856Z,244.20
2023-01-17T03:53:12.624Z,240.80
2023-01-17T03:55:41.689Z,232.07
2023-01-17T03:58:10.879Z,228.35
2023-01-17T04:00:39.670Z,215.10
2023-01-17T04:03:08.787Z,229.15
2023-01-17T04:05:37.527Z,235.27
2023-01-17T04:08:08.273Z,227.88
2023-01-17T04:10:37.125Z,214.23
2023-01-17T04:13:05.945Z,221.63
2023-01-17T04:15:35.776Z,221.23
2023-01-17T04:18:06.512Z,253.75
2023-01-17T04:20:41.038Z,229.77
2023-01-17T04:23:10.353Z,230.65
2023-01-17T04:25:39.135Z,229.60
2023-01-17T04:28:08.656Z,268.98
2023-01-17T04:30:37.542Z,241.25
2023-01-17T04:33:06.823Z,222.82
2023-01-17T04:35:35.817Z,236.93
2023-01-17T04:38:05.431Z,212.77
2023-01-17T04:40:34.285Z,198.40
2023-01-17T04:43:03.364Z,195.98
2023-01-17T04:45:32.366Z,173.32
2023-01-17T04:48:06.426Z,166.82
2023-01-17T04:50:35.889Z,181.10
2023-01-17T04:53:04.480Z,167.23
2023-01-17T04:55:33.369Z,148.70
2023-01-17T04:58:02.231Z,120.85
2023-01-17T05:00:31.568Z,162.80
2023-01-17T05:03:00.541Z,161.52
2023-01-17T05:05:29.640Z,142.50
2023-01-17T05:08:00.349Z,169.52
2023-01-17T05:10:29.757Z,151.13
2023-01-17T05:13:00.653Z,135.88
2023-01-17T05:15:30.064Z,149.05
2023-01-17T05:17:59.517Z,131.38
2023-01-17T05:20:28.691Z,137.65
2023-01-17T05:22:59.202Z,149.50
2023-01-17T05:25:30.678Z,133.73
2023-01-17T05:28:01.547Z,148.87
2023-01-17T05:30:32.542Z,128.68
2023-01-17T05:33:01.877Z,136.95
2023-01-17T05:35:33.679Z,151.25
2023-01-17T05:38:03.306Z,120.88
2023-01-17T05:40:34.360Z,109.03
2023-01-17T05:43:06.825Z,128.93
2023-01-17T05:45:35.900Z,120.07
2023-01-17T05:48:05.730Z,108.68
2023-01-17T05:50:38.270Z,140.23
2023-01-17T05:53:10.387Z,100.00
2023-01-17T05:55:40.572Z,114.90
2023-01-17T05:58:14.714Z,80.43
2023-01-17T06:00:44.703Z,110.00
2023-01-17T06:03:14.036Z,98.55
2023-01-17T06:05:43.902Z,94.38
2023-01-17T06:08:13.312Z,95.50
2023-01-17T06:10:42.081Z,87.47
2023-01-17T06:13:16.415Z,100.13
2023-01-17T06:15:45.587Z,96.38
2023-01-17T06:18:17.522Z,91.60
2023-01-17T06:20:47.431Z,121.05
2023-01-17T06:23:16.932Z,97.82
2023-01-17T06:25:47.844Z,91.32
2023-01-17T06:28:19.894Z,83.97
2023-01-17T06:30:49.266Z,128.57
2023-01-17T06:33:18.270Z,93.95
2023-01-17T06:35:54.458Z,124.90
2023-01-17T06:38:23.807Z,68.47
2023-01-17T06:40:52.880Z,74.22
2023-01-17T06:43:22.118Z,82.22
2023-01-17T06:45:51.451Z,53.60
2023-01-17T06:48:20.789Z,64.53
2023-01-17T06:50:50.704Z,48.67
2023-01-17T06:53:19.714Z,38.78
2023-01-17T06:55:48.902Z,41.13
2023-01-17T06:58:17.746Z,48.03
2023-01-17T07:00:46.875Z,43.13
2023-01-17T07:03:25.379Z,37.63
2023-01-17T07:05:54.611Z,31.58
2023-01-17T07:08:23.760Z,41.30
2023-01-17T07:10:53.145Z,41.17
2023-01-17T07:13:21.803Z,33.15
2023-01-17T07:15:51.009Z,34.03
2023-01-17T07:18:24.068Z,41.13
2023-01-17T07:20:56.206Z,51.20
2023-01-17T07:23:26.049Z,42.45
2023-01-17T07:25:57.657Z,51.08
2023-01-17T07:28:27.952Z,52.08
2023-01-17T07:30:57.341Z,37.25
2023-01-17T07:33:26.348Z,56.42
2023-01-17T07:35:55.380Z,42.83
2023-01-17T07:38:24.196Z,45.20
2023-01-17T07:40:53.255Z,51.85
2023-01-17T07:43:22.207Z,35.97
2023-01-17T07:45:52.741Z,57.13
2023-01-17T07:48:24.582Z,47.22
2023-01-17T07:50:58.059Z,49.10
2023-01-17T07:53:29.646Z,51.10
2023-01-17T07:56:03.906Z,57.78
2023-01-17T07:58:34.241Z,60.22
2023-01-17T08:01:08.804Z,102.45
2023-01-17T08:03:40.902Z,58.78
2023-01-17T08:06:23.615Z,48.92
2023-01-17T08:08:57.951Z,54.70
2023-01-17T08:11:28.360Z,50.85
2023-01-17T08:14:01.071Z,75.95
2023-01-17T08:16:30.851Z,64.20
2023-01-17T08:19:00.108Z,59.58
2023-01-17T08:21:28.876Z,63.42
2023-01-17T08:23:57.791Z,67.78
2023-01-17T08:26:26.649Z,47.35
2023-01-17T08:29:02.340Z,42.80
2023-01-17T08:31:36.354Z,30.08
2023-01-17T08:34:05.669Z,23.05
2023-01-17T08:36:34.488Z,21.17
2023-01-17T08:39:03.830Z,31.38
2023-01-17T08:41:33.311Z,19.75
2023-01-17T08:44:03.252Z,31.67
2023-01-17T08:46:32.943Z,13.55
2023-01-17T08:49:03.756Z,26.08
2023-01-17T08:51:33.750Z,22.15
2023-01-17T08:54:02.604Z,32.55
2023-01-17T08:56:31.683Z,28.95
2023-01-17T08:59:00.375Z,46.97
2023-01-17T09:01:29.493Z,24.50
2023-01-17T09:03:58.295Z,43.90
2023-01-17T09:06:27.709Z,42.00
2023-01-17T09:08:56.580Z,34.28
2023-01-17T09:11:25.529Z,29.13
2023-01-17T09:13:54.778Z,93.20
2023-01-17T09:16:24.116Z,29.55
2023-01-17T09:19:00.136Z,27.67
2023-01-17T09:21:29.307Z,36.55
2023-01-17T09:23:58.437Z,43.15
2023-01-17T09:26:30.151Z,34.53
2023-01-17T09:29:00.120Z,30.83
2023-01-17T09:31:29.961Z,35.53
2023-01-17T09:34:00.245Z,51.00
2023-01-17T09:36:34.754Z,33.35
2023-01-17T09:39:05.057Z,28.13
2023-01-17T09:42:19.487Z,41.50
2023-01-17T09:44:53.512Z,57.38
2023-01-17T09:47:41.490Z,69.82
2023-01-17T09:50:19.655Z,58.40
2023-01-17T09:52:49.128Z,32.30
2023-01-17T09:55:19.407Z,35.72
2023-01-17T09:58:00.969Z,50.60
2023-01-17T10:00:59.142Z,45.78
2023-01-17T10:03:43.288Z,40.70
2023-01-17T10:06:56.745Z,40.97
2023-01-17T10:09:39.884Z,70.53
2023-01-17T10:12:32.655Z,51.88
2023-01-17T10:15:23.196Z,40.80
2023-01-17T10:18:30.485Z,56.50
2023-01-17T10:21:33.847Z,42.28
2023-01-17T10:26:54.101Z,52.40
2023-01-17T10:29:29.207Z,55.65
2023-01-17T10:32:02.572Z,51.78
2023-01-17T10:34:49.310Z,29.10
2023-01-17T10:37:22.041Z,45.83
2023-01-17T10:39:54.767Z,58.90
2023-01-17T10:42:30.211Z,41.55
2023-01-17T10:45:21.893Z,42.38
2023-01-17T10:48:15.322Z,51.15
2023-01-17T10:50:59.527Z,40.42
2023-01-17T10:54:01.953Z,50.13
2023-01-17T10:56:32.251Z,41.55
2023-01-17T10:59:10.090Z,52.95
2023-01-17T11:01:40.963Z,30.55
2023-01-17T11:04:24.780Z,43.78
2023-01-17T11:07:15.391Z,38.72
2023-01-17T11:09:55.257Z,42.80
2023-01-17T11:12:48.306Z,36.90
2023-01-17T11:18:05.632Z,35.97
2023-01-17T11:20:46.641Z,59.97
2023-01-17T11:23:18.717Z,41.85
2023-01-17T11:26:07.226Z,38.78
2023-01-17T11:28:38.685Z,47.78
2023-01-17T11:31:29.707Z,48.88
2023-01-17T11:34:17.569Z,43.75
2023-01-17T11:36:47.071Z,48.95
2023-01-17T11:39:19.311Z,79.72
2023-01-17T11:41:49.827Z,64.13
2023-01-17T11:44:31.224Z,59.58
2023-01-17T11:47:15.655Z,58.85
2023-01-17T11:49:47.342Z,45.35
2023-01-17T11:52:33.347Z,47.47
2023-01-17T11:55:02.392Z,43.67
2023-01-17T11:57:34.446Z,66.80
2023-01-17T12:00:20.768Z,78.72
2023-01-17T12:03:16.208Z,65.68
2023-01-17T12:05:57.433Z,74.57
2023-01-17T12:08:57.583Z,77.72
2023-01-17T12:12:05.812Z,69.20
2023-01-17T12:14:42.289Z,94.50
2023-01-17T12:17:34.510Z,67.45
2023-01-17T12:20:12.632Z,65.07
2023-01-17T12:23:00.758Z,59.78
2023-01-17T12:25:41.543Z,66.97
2023-01-17T12:28:19.651Z,52.22
2023-01-17T12:31:14.511Z,67.05
2023-01-17T12:33:44.724Z,95.68
2023-01-17T12:36:54.200Z,92.97
2023-01-17T12:39:32.554Z,72.85
2023-01-17T12:42:08.773Z,83.47
2023-01-17T12:44:48.109Z,83.25
2023-01-17T12:47:19.592Z,83.43
2023-01-17T12:50:12.510Z,72.55
2023-01-17T12:53:00.212Z,100.60
2023-01-17T12:55:43.069Z,85.57
2023-01-17T13:00:55.871Z,93.47
2023-01-17T13:03:37.291Z,96.18
2023-01-17T13:06:08.460Z,112.60
2023-01-17T13:08:50.724Z,108.97
2023-01-17T13:12:01.235Z,106.82
2023-01-17T13:14:30.517Z,149.07
2023-01-17T13:17:10.337Z,159.38
2023-01-17T13:20:11.856Z,144.82
2023-01-17T13:22:42.921Z,147.40
2023-01-17T13:25:35.080Z,117.47
2023-01-17T13:28:11.916Z,121.97
2023-01-17T13:30:44.323Z,108.60
2023-01-17T13:33:28.424Z,109.47
2023-01-17T13:36:10.692Z,103.35
2023-01-17T13:39:10.123Z,110.85
2023-01-17T13:41:56.125Z,122.15
2023-01-17T13:44:31.217Z,122.15
2023-01-17T13:47:26.632Z,121.05
2023-01-17T13:49:57.523Z,146.48
2023-01-17T13:52:26.343Z,135.13
2023-01-17T13:54:58.668Z,135.27
2023-01-17T13:57:29.624Z,116.00
2023-01-17T14:00:25.196Z,130.68
2023-01-17T14:02:55.671Z,133.07
2023-01-17T14:05:39.411Z,127.97
2023-01-17T14:08:19.317Z,126.88
2023-01-17T14:10:52.908Z,137.10
2023-01-17T14:13:37.733Z,153.13
2023-01-17T14:16:27.862Z,127.35
2023-01-17T14:18:58.106Z,140.38
2023-01-17T14:21:32.664Z,155.68
2023-01-17T14:24:14.226Z,144.23
2023-01-17T14:26:53.728Z,130.27
2023-01-17T14:29:47.542Z,152.35
2023-01-17T14:32:23.278Z,174.70
2023-01-17T14:34:54.843Z,177.80
2023-01-17T14:37:42.723Z,154.27
2023-01-17T14:40:18.370Z,159.13
2023-01-17T14:42:53.346Z,165.55
2023-01-17T14:45:31.958Z,188.45
2023-01-17T14:48:03.510Z,162.82
2023-01-17T14:50:44.187Z,163.27
2023-01-17T14:53:16.507Z,188.13
2023-01-17T14:55:52.841Z,168.80
2023-01-17T14:58:25.141Z,166.48
2023-01-17T15:01:06.711Z,175.48
2023-01-17T15:04:02.754Z,191.05
2023-01-17T15:06:42.643Z,179.70
2023-01-17T15:09:17.826Z,174.43
2023-01-17T15:11:50.124Z,175.45
2023-01-17T15:14:33.326Z,188.73
2023-01-17T15:17:18.596Z,187.63
2023-01-17T15:20:04.887Z,194.90
2023-01-17T15:22:35.364Z,201.63
2023-01-17T15:25:05.174Z,202.93
2023-01-17T15:27:35.000Z,199.48
2023-01-17T15:30:07.209Z,210.10
2023-01-17T15:32:36.360Z,226.55
2023-01-17T15:35:09.080Z,216.35
2023-01-17T15:37:41.407Z,192.18
2023-01-17T15:40:29.108Z,222.80
2023-01-17T15:43:01.727Z,225.05
2023-01-17T15:45:32.753Z,185.30
2023-01-17T15:48:39.890Z,204.48
2023-01-17T15:51:14.425Z,191.07
2023-01-17T15:53:44.919Z,215.15
2023-01-17T15:56:33.868Z,204.98
2023-01-17T15:59:31.637Z,201.65
2023-01-17T16:02:01.057Z,175.02
2023-01-17T16:04:38.191Z,188.90
2023-01-17T16:07:21.498Z,180.65
2023-01-17T16:09:51.108Z,171.80
2023-01-17T16:12:20.061Z,172.10
2023-01-17T16:15:06.286Z,171.77
2023-01-17T16:17:38.484Z,209.77
2023-01-17T16:20:16.886Z,162.02
2023-01-17T16:22:45.812Z,177.95
2023-01-17T16:25:18.706Z,178.93
2023-01-17T16:27:48.383Z,176.50
2023-01-17T16:30:20.644Z,165.00
2023-01-17T16:32:50.590Z,170.45
2023-01-17T16:35:24.912Z,154.77
2023-01-17T16:37:59.121Z,173.93
2023-01-17T16:40:32.236Z,151.45
2023-01-17T16:43:02.198Z,153.30
2023-01-17T16:45:31.463Z,157.85
2023-01-17T16:48:00.538Z,151.52
2023-01-17T16:50:29.431Z,147.38
2023-01-17T16:52:58.955Z,146.98
2023-01-17T16:55:28.103Z,153.95
2023-01-17T16:57:59.335Z,154.13
2023-01-17T17:00:28.199Z,167.02
2023-01-17T17:02:57.111Z,161.68
2023-01-17T17:05:27.663Z,153.38
2023-01-17T17:07:56.987Z,139.15
2023-01-17T17:10:28.620Z,143.68
2023-01-17T17:12:57.961Z,135.80
2023-01-17T17:15:27.133Z,148.93
2023-01-17T17:17:56.118Z,144.10
2023-01-17T17:20:25.318Z,138.80
2023-01-17T17:22:54.527Z,144.68
2023-01-17T17:25:23.586Z,136.18
2023-01-17T17:27:52.944Z,150.43
2023-01-17T17:30:22.134Z,138.88
2023-01-17T17:32:51.055Z,143.65
2023-01-17T17:35:19.928Z,141.93
2023-01-17T17:37:48.970Z,153.00
2023-01-17T17:40:18.069Z,140.23
2023-01-17T17:42:46.997Z,148.25
2023-01-17T17:45:16.098Z,159.82
2023-01-17T17:47:45.370Z,167.30
2023-01-17T17:50:14.480Z,139.63
2023-01-17T17:52:45.454Z,149.77
2023-01-17T17:55:19.770Z,178.65
2023-01-17T17:57:48.882Z,148.93
2023-01-17T18:00:17.982Z,146.77
2023-01-17T18:02:46.863Z,151.98
2023-01-17T18:05:15.760Z,140.85
2023-01-17T18:07:44.809Z,133.00
2023-01-17T18:10:13.556Z,147.98
2023-01-17T18:12:42.456Z,151.15
2023-01-17T18:15:11.421Z,139.60
2023-01-17T18:17:40.325Z,144.63
2023-01-17T18:20:09.751Z,151.20
2023-01-17T18:22:38.686Z,149.98
2023-01-17T18:25:08.429Z,142.32
2023-01-17T18:27:37.331Z,156.20
2023-01-17T18:30:07.965Z,169.30
2023-01-17T18:32:36.767Z,151.63
2023-01-17T18:35:05.959Z,138.98
2023-01-17T18:37:35.163Z,164.13
2023-01-17T18:40:03.847Z,137.23
2023-01-17T18:42:33.081Z,142.65
2023-01-17T18:45:02.075Z,148.52
2023-01-17T18:47:31.152Z,139.15
2023-01-17T18:50:00.541Z,130.32
2023-01-17T18:52:29.234Z,144.15
2023-01-17T18:54:58.294Z,150.65
2023-01-17T18:57:27.141Z,144.20
2023-01-17T18:59:56.199Z,143.07
2023-01-17T19:02:25.286Z,149.18
2023-01-17T19:04:54.011Z,165.63
2023-01-17T19:07:22.941Z,157.10
2023-01-17T19:09:51.796Z,159.90
2023-01-17T19:12:20.840Z,171.07
2023-01-17T19:14:49.576Z,160.57
2023-01-17T19:17:19.615Z,158.57
2023-01-17T19:19:49.792Z,165.35
2023-01-17T19:22:18.769Z,160.93
2023-01-17T19:24:47.592Z,186.32
2023-01-17T19:27:16.963Z,163.57
2023-01-17T19:29:45.921Z,158.30
2023-01-17T19:32:14.876Z,170.38
2023-01-17T19:34:43.519Z,138.05
2023-01-17T19:37:12.391Z,168.00
2023-01-17T19:39:41.894Z,158.80
2023-01-17T19:42:16.475Z,150.00
2023-01-17T19:44:45.412Z,138.93
2023-01-17T19:47:14.216Z,150.00
2023-01-17T19:49:45.433Z,135.48
2023-01-17T19:52:14.350Z,143.55
2023-01-17T19:54:43.018Z,142.13
2023-01-17T19:57:12.071Z,157.95
2023-01-17T19:59:40.933Z,166.18
2023-01-17T20:02:12.611Z,150.13
2023-01-17T20:04:41.653Z,152.68
2023-01-17T20:07:10.706Z,156.85
2023-01-17T20:09:39.736Z,150.93
2023-01-17T20:12:08.764Z,161.13
2023-01-17T20:14:37.871Z,155.07
2023-01-17T20:17:06.950Z,150.43
2023-01-17T20:19:36.000Z,154.85
2023-01-17T20:22:06.269Z,164.88
2023-01-17T20:24:35.323Z,155.25
2023-01-17T20:27:04.464Z,152.57
2023-01-17T20:29:33.279Z,138.98
2023-01-17T20:32:02.161Z,154.77
2023-01-17T20:34:32.553Z,148.20
2023-01-17T20:37:01.487Z,157.10
2023-01-17T20:39:30.655Z,145.68
2023-01-17T20:41:59.483Z,146.13
2023-01-17T20:44:28.480Z,149.15
2023-01-17T20:46:57.514Z,138.93
2023-01-17T20:49:26.694Z,140.93
2023-01-17T20:51:56.338Z,155.85
2023-01-17T20:54:25.877Z,180.93
2023-01-17T20:56:56.189Z,182.00
2023-01-17T20:59:25.143Z,160.18
2023-01-17T21:01:54.285Z,155.27
2023-01-17T21:04:26.659Z,153.07
2023-01-17T21:06:56.343Z,157.13
2023-01-17T21:09:25.584Z,150.02
2023-01-17T21:12:02.119Z,148.25
2023-01-17T21:14:31.468Z,167.20
2023-01-17T21:17:00.789Z,165.52
2023-01-17T21:19:29.786Z,168.10
2023-01-17T21:21:58.683Z,171.07
2023-01-17T21:24:30.366Z,167.13
2023-01-17T21:26:59.460Z,168.57
2023-01-17T21:29:30.250Z,186.32
2023-01-17T21:31:59.758Z,174.43
2023-01-17T21:34:30.314Z,181.30
2023-01-17T21:36:59.802Z,146.80
2023-01-17T21:39:30.236Z,144.98
2023-01-17T21:41:59.358Z,175.27
2023-01-17T21:44:28.139Z,169.23
2023-01-17T21:46:57.222Z,166.38
2023-01-17T21:49:26.159Z,159.43
2023-01-17T21:51:55.452Z,151.15
2023-01-17T21:54:47.721Z,136.68
2023-01-17T21:57:38.267Z,148.07
2023-01-17T22:00:10.541Z,152.45
2023-01-17T22:02:47.983Z,141.73
2023-01-17T22:05:18.251Z,146.02
2023-01-17T22:08:05.721Z,154.75
2023-01-17T22:10:45.481Z,154.18
2023-01-17T22:13:16.279Z,152.32
2023-01-17T22:15:46.247Z,149.23
2023-01-17T22:18:16.120Z,169.55
2023-01-17T22:20:44.830Z,175.60
2023-01-17T22:23:13.878Z,161.73
2023-01-17T22:25:42.819Z,155.85
2023-01-17T22:28:12.202Z,148.02
2023-01-17T22:30:40.992Z,166.70
2023-01-17T22:33:09.803Z,163.50
2023-01-17T22:35:38.803Z,157.35
2023-01-17T22:38:07.637Z,166.07
2023-01-17T22:40:39.297Z,160.45
2023-01-17T22:43:08.147Z,182.20
2023-01-17T22:45:37.145Z,169.80
2023-01-17T22:48:06.360Z,171.73
2023-01-17T22:50:35.625Z,170.75
2023-01-17T22:53:04.383Z,181.40
2023-01-17T22:55:33.519Z,174.90
2023-01-17T22:58:02.298Z,199.93
2023-01-17T23:00:32.446Z,186.70
2023-01-17T23:03:01.686Z,193.65
2023-01-17T23:05:30.613Z,180.20
2023-01-17T23:08:02.252Z,196.45
2023-01-17T23:10:49.546Z,166.13
2023-01-17T23:13:21.509Z,177.20
2023-01-17T23:16:08.727Z,205.40
2023-01-17T23:18:55.862Z,190.55
2023-01-17T23:21:44.660Z,187.60
2023-01-17T23:24:13.476Z,173.20
2023-01-17T23:27:02.199Z,197.18
2023-01-17T23:29:31.065Z,222.45
2023-01-17T23:31:59.850Z,212.07
2023-01-17T23:34:28.841Z,218.40
2023-01-17T23:36:57.678Z,212.30
2023-01-17T23:39:28.478Z,167.52
2023-01-17T23:42:16.121Z,194.55
2023-01-17T23:44:45.059Z,213.60
2023-01-17T23:47:13.757Z,207.55
2023-01-17T23:49:44.459Z,169.85
2023-01-17T23:52:13.168Z,192.80
2023-01-17T23:54:42.024Z,194.73
2023-01-17T23:57:10.955Z,176.57
2023-01-17T23:59:39.750Z,204.63
